KRIC/RIC METAR and TAF weather

Enter ICAO airport designator
Station Type Date Time Source
KRIC METAR 2022/01/19 20:54 UTC NOAA

KRIC 192054Z 22013KT 10SM BKN130 BKN300 13/M04 A3007 RMK AO2 SLP190 T01331039 55013


Station Type Date Time Source
KRIC Decoded METAR 2022/01/19 20:54 UTC NOAA

RICHMOND INTERNATIONAL AIRPORT, VA, United States (KRIC) 37-31N 077-19W 50M
Jan 19, 2022 - 03:54 PM EST / 2022.01.19 2054 UTC
Wind: from the SW (220 degrees) at 15 MPH (13 KT):0
Visibility: 10 mile(s):0
Sky conditions: mostly cloudy
Temperature: 55.9 F (13.3 C)
Dew Point: 25.0 F (-3.9 C)
Relative Humidity: 29%
Pressure (altimeter): 30.07 in. Hg (1018 hPa)
Pressure tendency: 0.04 inches (1.3 hPa) lower than three hours ago
ob: KRIC 192054Z 22013KT 10SM BKN130 BKN300 13/M04 A3007 RMK AO2 SLP190 T01331039 55013
cycle: 21

Station Type Date Time Source
KRIC TAF 2022/01/19 18:22 UTC NOAA

TAF KRIC 191720Z 1918/2018 22013G20KT P6SM FEW200
FM201200 24005KT 4SM -RA BR OVC050
FM201400 35008KT 4SM -RA BR OVC020
FM201600 01011KT 4SM -RA BR OVC007

Example: see airport list